sensor_id;sensor_type;location;lat;lon;timestamp;temperature;humidity
35894;DHT22;21994;48.204;16.516;2023-07-09T00:02:20;17.30;99.90
35894;DHT22;21994;48.204;16.516;2023-07-09T00:04:47;17.20;99.90
35894;DHT22;21994;48.204;16.516;2023-07-09T00:09:50;17.20;99.90
35894;DHT22;21994;48.204;16.516;2023-07-09T00:12:17;17.20;99.90
35894;DHT22;21994;48.204;16.516;2023-07-09T00:14:43;17.10;99.90
35894;DHT22;21994;48.204;16.516;2023-07-09T00:17:11;17.10;99.90
35894;DHT22;21994;48.204;16.516;2023-07-09T00:19:41;17.10;99.90
35894;DHT22;21994;48.204;16.516;2023-07-09T00:22:13;17.10;99.90
35894;DHT22;21994;48.204;16.516;2023-07-09T00:24:46;17.00;99.90
35894;DHT22;21994;48.204;16.516;2023-07-09T00:27:16;17.00;99.90
35894;DHT22;21994;48.204;16.516;2023-07-09T00:29:43;17.00;99.90
35894;DHT22;21994;48.204;16.516;2023-07-09T00:32:11;17.00;99.90
35894;DHT22;21994;48.204;16.516;2023-07-09T00:34:40;17.00;99.90
35894;DHT22;21994;48.204;16.516;2023-07-09T00:37:14;16.90;99.90
35894;DHT22;21994;48.204;16.516;2023-07-09T00:39:42;16.80;99.90
35894;DHT22;21994;48.204;16.516;2023-07-09T00:42:11;16.80;99.90
35894;DHT22;21994;48.204;16.516;2023-07-09T00:44:43;16.70;99.90
35894;DHT22;21994;48.204;16.516;2023-07-09T00:47:44;16.70;99.90
35894;DHT22;21994;48.204;16.516;2023-07-09T00:50:52;16.70;99.90
35894;DHT22;21994;48.204;16.516;2023-07-09T00:53:03;16.60;99.90
35894;DHT22;21994;48.204;16.516;2023-07-09T00:55:35;16.60;99.90
35894;DHT22;21994;48.204;16.516;2023-07-09T00:58:05;16.60;99.90
35894;DHT22;21994;48.204;16.516;2023-07-09T01:00:44;16.50;99.90
35894;DHT22;21994;48.204;16.516;2023-07-09T01:03:14;16.40;99.90
35894;DHT22;21994;48.204;16.516;2023-07-09T01:05:46;16.50;99.90
35894;DHT22;21994;48.204;16.516;2023-07-09T01:08:17;16.40;99.90
35894;DHT22;21994;48.204;16.516;2023-07-09T01:10:44;16.40;99.90
35894;DHT22;21994;48.204;16.516;2023-07-09T01:13:10;16.40;99.90
35894;DHT22;21994;48.204;16.516;2023-07-09T01:15:36;16.40;99.90
35894;DHT22;21994;48.204;16.516;2023-07-09T01:18:03;16.30;99.90
35894;DHT22;21994;48.204;16.516;2023-07-09T01:20:30;16.30;99.90
35894;DHT22;21994;48.204;16.516;2023-07-09T01:22:56;16.30;99.90
35894;DHT22;21994;48.204;16.516;2023-07-09T01:25:23;16.20;99.90
35894;DHT22;21994;48.204;16.516;2023-07-09T01:27:49;16.20;99.90
35894;DHT22;21994;48.204;16.516;2023-07-09T01:32:48;16.10;99.90
35894;DHT22;21994;48.204;16.516;2023-07-09T01:35:15;16.10;99.90
35894;DHT22;21994;48.204;16.516;2023-07-09T01:37:45;16.10;99.90
35894;DHT22;21994;48.204;16.516;2023-07-09T01:40:15;16.00;99.90
35894;DHT22;21994;48.204;16.516;2023-07-09T01:42:43;16.00;99.90
35894;DHT22;21994;48.204;16.516;2023-07-09T01:45:09;16.00;99.90
35894;DHT22;21994;48.204;16.516;2023-07-09T01:47:38;16.00;99.90
35894;DHT22;21994;48.204;16.516;2023-07-09T01:50:05;16.00;99.90
35894;DHT22;21994;48.204;16.516;2023-07-09T01:52:32;15.90;99.90
35894;DHT22;21994;48.204;16.516;2023-07-09T01:54:58;15.90;99.90
35894;DHT22;21994;48.204;16.516;2023-07-09T01:57:25;15.90;99.90
35894;DHT22;21994;48.204;16.516;2023-07-09T01:59:59;15.80;99.90
35894;DHT22;21994;48.204;16.516;2023-07-09T02:02:34;15.80;99.90
35894;DHT22;21994;48.204;16.516;2023-07-09T02:05:01;15.80;99.90
35894;DHT22;21994;48.204;16.516;2023-07-09T02:07:27;15.70;99.90
35894;DHT22;21994;48.204;16.516;2023-07-09T02:09:53;15.70;99.90
35894;DHT22;21994;48.204;16.516;2023-07-09T02:12:19;15.70;99.90
35894;DHT22;21994;48.204;16.516;2023-07-09T02:14:45;15.70;99.90
35894;DHT22;21994;48.204;16.516;2023-07-09T02:17:12;15.70;99.90
35894;DHT22;21994;48.204;16.516;2023-07-09T02:19:39;15.70;99.90
35894;DHT22;21994;48.204;16.516;2023-07-09T02:22:06;15.70;99.90
35894;DHT22;21994;48.204;16.516;2023-07-09T02:24:32;15.70;99.90
35894;DHT22;21994;48.204;16.516;2023-07-09T02:26:58;15.60;99.90
35894;DHT22;21994;48.204;16.516;2023-07-09T02:29:26;15.60;99.90
35894;DHT22;21994;48.204;16.516;2023-07-09T02:31:54;15.60;99.90
35894;DHT22;21994;48.204;16.516;2023-07-09T02:34:20;15.60;99.90
35894;DHT22;21994;48.204;16.516;2023-07-09T02:36:51;15.50;99.90
35894;DHT22;21994;48.204;16.516;2023-07-09T02:39:17;15.50;99.90
35894;DHT22;21994;48.204;16.516;2023-07-09T02:41:43;15.40;99.90
35894;DHT22;21994;48.204;16.516;2023-07-09T02:44:09;15.50;99.90
35894;DHT22;21994;48.204;16.516;2023-07-09T02:46:37;15.50;99.90
35894;DHT22;21994;48.204;16.516;2023-07-09T02:49:04;15.40;99.90
35894;DHT22;21994;48.204;16.516;2023-07-09T02:51:30;15.40;99.90
35894;DHT22;21994;48.204;16.516;2023-07-09T02:53:57;15.40;99.90
35894;DHT22;21994;48.204;16.516;2023-07-09T02:56:24;15.30;99.90
35894;DHT22;21994;48.204;16.516;2023-07-09T02:58:51;15.30;99.90
35894;DHT22;21994;48.204;16.516;2023-07-09T03:01:17;15.30;99.90
35894;DHT22;21994;48.204;16.516;2023-07-09T03:03:43;15.30;99.90
35894;DHT22;21994;48.204;16.516;2023-07-09T03:06:09;15.30;99.90
35894;DHT22;21994;48.204;16.516;2023-07-09T03:08:35;15.20;99.90
35894;DHT22;21994;48.204;16.516;2023-07-09T03:11:10;15.20;99.90
35894;DHT22;21994;48.204;16.516;2023-07-09T03:13:37;15.30;99.90
35894;DHT22;21994;48.204;16.516;2023-07-09T03:16:03;15.20;99.90
35894;DHT22;21994;48.204;16.516;2023-07-09T03:18:29;15.30;99.90
35894;DHT22;21994;48.204;16.516;2023-07-09T03:20:54;15.20;99.90
35894;DHT22;21994;48.204;16.516;2023-07-09T03:23:21;15.20;99.90
35894;DHT22;21994;48.204;16.516;2023-07-09T03:25:46;15.20;99.90
35894;DHT22;21994;48.204;16.516;2023-07-09T03:28:12;15.30;99.90
35894;DHT22;21994;48.204;16.516;2023-07-09T03:30:42;15.20;99.90
35894;DHT22;21994;48.204;16.516;2023-07-09T03:33:12;15.20;99.90
35894;DHT22;21994;48.204;16.516;2023-07-09T03:35:38;15.20;99.90
35894;DHT22;21994;48.204;16.516;2023-07-09T03:38:04;15.20;99.90
35894;DHT22;21994;48.204;16.516;2023-07-09T03:40:31;15.10;99.90
35894;DHT22;21994;48.204;16.516;2023-07-09T03:42:56;15.20;99.90
35894;DHT22;21994;48.204;16.516;2023-07-09T03:45:22;15.20;99.90
35894;DHT22;21994;48.204;16.516;2023-07-09T03:47:48;15.20;99.90
35894;DHT22;21994;48.204;16.516;2023-07-09T03:50:14;15.20;99.90
35894;DHT22;21994;48.204;16.516;2023-07-09T03:52:41;15.20;99.90
35894;DHT22;21994;48.204;16.516;2023-07-09T03:55:07;15.20;99.90
35894;DHT22;21994;48.204;16.516;2023-07-09T03:57:34;15.20;99.90
35894;DHT22;21994;48.204;16.516;2023-07-09T04:00:00;15.20;99.90
35894;DHT22;21994;48.204;16.516;2023-07-09T04:02:26;15.20;99.90
35894;DHT22;21994;48.204;16.516;2023-07-09T04:04:52;15.20;99.90
35894;DHT22;21994;48.204;16.516;2023-07-09T04:07:18;15.20;99.90
35894;DHT22;21994;48.204;16.516;2023-07-09T04:09:43;15.30;99.90
35894;DHT22;21994;48.204;16.516;2023-07-09T04:12:09;15.30;99.90
35894;DHT22;21994;48.204;16.516;2023-07-09T04:14:35;15.40;99.90
35894;DHT22;21994;48.204;16.516;2023-07-09T04:17:02;15.40;99.90
35894;DHT22;21994;48.204;16.516;2023-07-09T04:19:28;15.50;99.90
35894;DHT22;21994;48.204;16.516;2023-07-09T04:21:53;15.60;99.90
35894;DHT22;21994;48.204;16.516;2023-07-09T04:24:20;15.60;99.90
35894;DHT22;21994;48.204;16.516;2023-07-09T04:26:46;15.70;99.90
35894;DHT22;21994;48.204;16.516;2023-07-09T04:29:12;15.70;99.90
35894;DHT22;21994;48.204;16.516;2023-07-09T04:31:38;15.70;99.90
35894;DHT22;21994;48.204;16.516;2023-07-09T04:34:05;15.80;99.90
35894;DHT22;21994;48.204;16.516;2023-07-09T04:36:31;15.90;99.90
35894;DHT22;21994;48.204;16.516;2023-07-09T04:38:57;15.90;99.90
35894;DHT22;21994;48.204;16.516;2023-07-09T04:41:23;16.00;99.90
35894;DHT22;21994;48.204;16.516;2023-07-09T04:43:49;16.00;99.90
35894;DHT22;21994;48.204;16.516;2023-07-09T04:46:15;16.00;99.90
35894;DHT22;21994;48.204;16.516;2023-07-09T04:48:41;16.10;99.90
35894;DHT22;21994;48.204;16.516;2023-07-09T04:51:06;16.10;99.90
35894;DHT22;21994;48.204;16.516;2023-07-09T04:53:32;16.20;99.90
35894;DHT22;21994;48.204;16.516;2023-07-09T04:55:58;16.30;99.90
35894;DHT22;21994;48.204;16.516;2023-07-09T04:58:24;16.40;99.90
35894;DHT22;21994;48.204;16.516;2023-07-09T05:00:50;16.50;99.90
35894;DHT22;21994;48.204;16.516;2023-07-09T05:03:18;16.60;99.90
35894;DHT22;21994;48.204;16.516;2023-07-09T05:05:45;16.70;99.90
35894;DHT22;21994;48.204;16.516;2023-07-09T05:08:12;16.80;99.90
35894;DHT22;21994;48.204;16.516;2023-07-09T05:10:42;17.00;99.90
35894;DHT22;21994;48.204;16.516;2023-07-09T05:13:08;17.10;99.90
35894;DHT22;21994;48.204;16.516;2023-07-09T05:15:34;17.20;99.90
35894;DHT22;21994;48.204;16.516;2023-07-09T05:18:00;17.30;99.90
35894;DHT22;21994;48.204;16.516;2023-07-09T05:20:25;17.50;99.90
35894;DHT22;21994;48.204;16.516;2023-07-09T05:22:51;17.60;99.90
35894;DHT22;21994;48.204;16.516;2023-07-09T05:25:17;17.90;99.90
35894;DHT22;21994;48.204;16.516;2023-07-09T05:27:43;18.00;99.90
35894;DHT22;21994;48.204;16.516;2023-07-09T05:30:09;18.20;99.90
35894;DHT22;21994;48.204;16.516;2023-07-09T05:32:36;18.30;99.90
35894;DHT22;21994;48.204;16.516;2023-07-09T05:35:02;18.50;99.90
35894;DHT22;21994;48.204;16.516;2023-07-09T05:37:28;18.80;99.90
35894;DHT22;21994;48.204;16.516;2023-07-09T05:39:55;18.80;99.90
35894;DHT22;21994;48.204;16.516;2023-07-09T05:42:20;19.00;99.90
35894;DHT22;21994;48.204;16.516;2023-07-09T05:44:46;18.90;99.90
35894;DHT22;21994;48.204;16.516;2023-07-09T05:47:12;18.90;99.90
35894;DHT22;21994;48.204;16.516;2023-07-09T05:49:38;18.90;99.90
35894;DHT22;21994;48.204;16.516;2023-07-09T05:52:04;18.90;99.90
35894;DHT22;21994;48.204;16.516;2023-07-09T05:54:31;19.00;99.90
35894;DHT22;21994;48.204;16.516;2023-07-09T05:56:57;19.00;99.90
35894;DHT22;21994;48.204;16.516;2023-07-09T05:59:22;19.00;99.90
35894;DHT22;21994;48.204;16.516;2023-07-09T06:01:49;19.10;99.90
35894;DHT22;21994;48.204;16.516;2023-07-09T06:04:15;19.10;99.90
35894;DHT22;21994;48.204;16.516;2023-07-09T06:06:41;19.30;99.90
35894;DHT22;21994;48.204;16.516;2023-07-09T06:09:08;19.40;99.90
35894;DHT22;21994;48.204;16.516;2023-07-09T06:11:34;19.70;99.90
35894;DHT22;21994;48.204;16.516;2023-07-09T06:14:00;19.80;99.90
35894;DHT22;21994;48.204;16.516;2023-07-09T06:16:26;20.00;99.90
35894;DHT22;21994;48.204;16.516;2023-07-09T06:18:52;20.10;99.90
35894;DHT22;21994;48.204;16.516;2023-07-09T06:21:18;20.20;99.90
35894;DHT22;21994;48.204;16.516;2023-07-09T06:23:47;20.30;99.90
35894;DHT22;21994;48.204;16.516;2023-07-09T06:26:13;20.40;99.90
35894;DHT22;21994;48.204;16.516;2023-07-09T06:28:39;20.60;99.90
35894;DHT22;21994;48.204;16.516;2023-07-09T06:31:04;20.70;99.90
35894;DHT22;21994;48.204;16.516;2023-07-09T06:33:30;20.80;99.90
35894;DHT22;21994;48.204;16.516;2023-07-09T06:35:57;20.80;99.90
35894;DHT22;21994;48.204;16.516;2023-07-09T06:38:24;20.90;99.90
35894;DHT22;21994;48.204;16.516;2023-07-09T06:40:50;21.00;99.90
35894;DHT22;21994;48.204;16.516;2023-07-09T06:43:16;21.10;99.90
35894;DHT22;21994;48.204;16.516;2023-07-09T06:45:56;21.30;99.90
35894;DHT22;21994;48.204;16.516;2023-07-09T06:48:23;21.50;99.90
35894;DHT22;21994;48.204;16.516;2023-07-09T06:50:52;21.60;99.90
35894;DHT22;21994;48.204;16.516;2023-07-09T06:53:19;21.80;99.90
35894;DHT22;21994;48.204;16.516;2023-07-09T06:55:46;22.00;99.90
35894;DHT22;21994;48.204;16.516;2023-07-09T06:58:12;22.10;99.90
35894;DHT22;21994;48.204;16.516;2023-07-09T07:00:53;22.30;99.90
35894;DHT22;21994;48.204;16.516;2023-07-09T07:03:20;22.50;99.90
35894;DHT22;21994;48.204;16.516;2023-07-09T07:05:47;22.80;99.90
35894;DHT22;21994;48.204;16.516;2023-07-09T07:08:19;23.00;99.90
35894;DHT22;21994;48.204;16.516;2023-07-09T07:10:47;23.30;99.90
35894;DHT22;21994;48.204;16.516;2023-07-09T07:13:13;23.60;99.90
35894;DHT22;21994;48.204;16.516;2023-07-09T07:15:39;23.90;99.90
35894;DHT22;21994;48.204;16.516;2023-07-09T07:18:06;24.20;99.90
35894;DHT22;21994;48.204;16.516;2023-07-09T07:20:32;24.50;99.90
35894;DHT22;21994;48.204;16.516;2023-07-09T07:22:58;24.70;99.60
35894;DHT22;21994;48.204;16.516;2023-07-09T07:25:24;25.00;99.50
35894;DHT22;21994;48.204;16.516;2023-07-09T07:27:50;25.30;99.90
35894;DHT22;21994;48.204;16.516;2023-07-09T07:30:16;25.50;98.70
35894;DHT22;21994;48.204;16.516;2023-07-09T07:32:43;25.70;99.40
35894;DHT22;21994;48.204;16.516;2023-07-09T07:35:11;26.10;98.40
35894;DHT22;21994;48.204;16.516;2023-07-09T07:37:39;26.40;99.10
35894;DHT22;21994;48.204;16.516;2023-07-09T07:40:05;26.60;98.10
35894;DHT22;21994;48.204;16.516;2023-07-09T07:42:32;27.00;97.10
35894;DHT22;21994;48.204;16.516;2023-07-09T07:44:58;27.20;96.20
35894;DHT22;21994;48.204;16.516;2023-07-09T07:47:24;27.60;97.00
35894;DHT22;21994;48.204;16.516;2023-07-09T07:49:51;27.60;96.50
35894;DHT22;21994;48.204;16.516;2023-07-09T07:52:16;27.60;95.40
35894;DHT22;21994;48.204;16.516;2023-07-09T07:54:42;27.80;96.00
35894;DHT22;21994;48.204;16.516;2023-07-09T07:57:08;28.10;95.60
35894;DHT22;21994;48.204;16.516;2023-07-09T07:59:35;28.30;96.20
35894;DHT22;21994;48.204;16.516;2023-07-09T08:02:01;28.50;95.50
35894;DHT22;21994;48.204;16.516;2023-07-09T08:04:28;28.70;95.30
35894;DHT22;21994;48.204;16.516;2023-07-09T08:06:54;28.70;93.40
35894;DHT22;21994;48.204;16.516;2023-07-09T08:09:20;29.10;94.30
35894;DHT22;21994;48.204;16.516;2023-07-09T08:11:46;29.00;93.20
35894;DHT22;21994;48.204;16.516;2023-07-09T08:14:11;29.00;93.40
35894;DHT22;21994;48.204;16.516;2023-07-09T08:16:38;29.20;92.20
35894;DHT22;21994;48.204;16.516;2023-07-09T08:19:04;29.60;91.80
35894;DHT22;21994;48.204;16.516;2023-07-09T08:21:30;29.90;93.40
35894;DHT22;21994;48.204;16.516;2023-07-09T08:23:56;29.80;91.80
35894;DHT22;21994;48.204;16.516;2023-07-09T08:26:22;30.10;91.80
35894;DHT22;21994;48.204;16.516;2023-07-09T08:28:50;30.20;93.00
35894;DHT22;21994;48.204;16.516;2023-07-09T08:31:16;30.30;91.50
35894;DHT22;21994;48.204;16.516;2023-07-09T08:33:42;30.40;92.10
35894;DHT22;21994;48.204;16.516;2023-07-09T08:36:10;30.70;91.00
35894;DHT22;21994;48.204;16.516;2023-07-09T08:38:45;30.90;90.50
35894;DHT22;21994;48.204;16.516;2023-07-09T08:46:52;31.60;89.30
35894;DHT22;21994;48.204;16.516;2023-07-09T08:52:21;32.10;89.80
35894;DHT22;21994;48.204;16.516;2023-07-09T08:55:06;32.40;88.30
35894;DHT22;21994;48.204;16.516;2023-07-09T08:57:34;32.50;90.20
35894;DHT22;21994;48.204;16.516;2023-07-09T09:02:48;32.10;87.10
35894;DHT22;21994;48.204;16.516;2023-07-09T09:05:17;32.50;88.30
35894;DHT22;21994;48.204;16.516;2023-07-09T09:07:45;32.50;90.10
35894;DHT22;21994;48.204;16.516;2023-07-09T09:10:43;32.80;87.80
35894;DHT22;21994;48.204;16.516;2023-07-09T09:13:13;32.80;86.00
35894;DHT22;21994;48.204;16.516;2023-07-09T09:15:43;33.10;84.60
35894;DHT22;21994;48.204;16.516;2023-07-09T09:18:17;33.50;83.40
35894;DHT22;21994;48.204;16.516;2023-07-09T09:21:01;33.80;82.70
35894;DHT22;21994;48.204;16.516;2023-07-09T09:23:36;33.90;80.90
35894;DHT22;21994;48.204;16.516;2023-07-09T09:26:12;34.10;78.00
35894;DHT22;21994;48.204;16.516;2023-07-09T09:28:42;33.90;78.80
35894;DHT22;21994;48.204;16.516;2023-07-09T09:31:10;33.70;82.00
35894;DHT22;21994;48.204;16.516;2023-07-09T09:33:46;34.00;81.60
35894;DHT22;21994;48.204;16.516;2023-07-09T09:36:14;34.50;79.00
35894;DHT22;21994;48.204;16.516;2023-07-09T09:38:47;35.00;78.30
35894;DHT22;21994;48.204;16.516;2023-07-09T09:41:22;35.30;77.10
35894;DHT22;21994;48.204;16.516;2023-07-09T09:43:51;34.90;77.30
35894;DHT22;21994;48.204;16.516;2023-07-09T09:46:23;34.90;76.90
35894;DHT22;21994;48.204;16.516;2023-07-09T09:48:50;34.80;80.50
35894;DHT22;21994;48.204;16.516;2023-07-09T09:51:18;35.20;75.80
35894;DHT22;21994;48.204;16.516;2023-07-09T09:53:45;35.70;73.00
35894;DHT22;21994;48.204;16.516;2023-07-09T09:56:18;35.80;74.70
35894;DHT22;21994;48.204;16.516;2023-07-09T09:58:51;36.00;74.20
35894;DHT22;21994;48.204;16.516;2023-07-09T10:01:18;35.70;73.60
35894;DHT22;21994;48.204;16.516;2023-07-09T10:03:46;35.90;73.70
35894;DHT22;21994;48.204;16.516;2023-07-09T10:13:48;36.30;71.20
35894;DHT22;21994;48.204;16.516;2023-07-09T10:16:21;36.30;73.80
35894;DHT22;21994;48.204;16.516;2023-07-09T10:18:58;37.00;70.00
35894;DHT22;21994;48.204;16.516;2023-07-09T10:40:39;38.80;64.70
35894;DHT22;21994;48.204;16.516;2023-07-09T10:43:10;38.70;64.40
35894;DHT22;21994;48.204;16.516;2023-07-09T10:45:41;38.10;64.90
35894;DHT22;21994;48.204;16.516;2023-07-09T10:50:50;38.60;64.00
35894;DHT22;21994;48.204;16.516;2023-07-09T10:53:27;38.50;65.00
35894;DHT22;21994;48.204;16.516;2023-07-09T10:56:07;38.30;63.70
35894;DHT22;21994;48.204;16.516;2023-07-09T11:01:37;39.10;60.90
35894;DHT22;21994;48.204;16.516;2023-07-09T11:04:06;39.00;60.00
35894;DHT22;21994;48.204;16.516;2023-07-09T11:06:37;38.60;61.10
35894;DHT22;21994;48.204;16.516;2023-07-09T11:09:49;37.80;60.80
35894;DHT22;21994;48.204;16.516;2023-07-09T11:11:57;38.20;58.00
35894;DHT22;21994;48.204;16.516;2023-07-09T11:14:33;38.00;60.40
35894;DHT22;21994;48.204;16.516;2023-07-09T11:17:03;37.90;62.50
35894;DHT22;21994;48.204;16.516;2023-07-09T11:19:29;37.60;63.00
35894;DHT22;21994;48.204;16.516;2023-07-09T11:24:32;37.90;62.40
35894;DHT22;21994;48.204;16.516;2023-07-09T11:32:26;36.30;64.10
35894;DHT22;21994;48.204;16.516;2023-07-09T11:34:53;36.90;58.70
35894;DHT22;21994;48.204;16.516;2023-07-09T11:37:20;36.80;60.10
35894;DHT22;21994;48.204;16.516;2023-07-09T11:39:51;36.20;64.60
35894;DHT22;21994;48.204;16.516;2023-07-09T11:42:24;36.10;66.20
35894;DHT22;21994;48.204;16.516;2023-07-09T11:45:01;35.80;62.50
35894;DHT22;21994;48.204;16.516;2023-07-09T11:47:38;35.70;62.10
35894;DHT22;21994;48.204;16.516;2023-07-09T11:52:56;35.20;62.80
35894;DHT22;21994;48.204;16.516;2023-07-09T11:55:26;34.90;64.90
35894;DHT22;21994;48.204;16.516;2023-07-09T11:57:58;34.80;64.70
35894;DHT22;21994;48.204;16.516;2023-07-09T12:00:25;34.60;65.70
35894;DHT22;21994;48.204;16.516;2023-07-09T12:02:54;34.70;63.70
35894;DHT22;21994;48.204;16.516;2023-07-09T12:05:22;34.50;67.00
35894;DHT22;21994;48.204;16.516;2023-07-09T12:07:51;34.50;63.40
35894;DHT22;21994;48.204;16.516;2023-07-09T12:10:19;34.70;64.80
35894;DHT22;21994;48.204;16.516;2023-07-09T12:12:48;35.00;60.60
35894;DHT22;21994;48.204;16.516;2023-07-09T12:15:21;35.00;63.30
35894;DHT22;21994;48.204;16.516;2023-07-09T12:17:52;34.90;61.60
35894;DHT22;21994;48.204;16.516;2023-07-09T12:20:28;34.90;64.90
35894;DHT22;21994;48.204;16.516;2023-07-09T12:22:56;34.90;63.10
35894;DHT22;21994;48.204;16.516;2023-07-09T12:25:23;34.90;64.80
35894;DHT22;21994;48.204;16.516;2023-07-09T12:27:50;34.70;69.30
35894;DHT22;21994;48.204;16.516;2023-07-09T12:30:16;34.70;64.90
35894;DHT22;21994;48.204;16.516;2023-07-09T12:32:43;34.60;63.70
35894;DHT22;21994;48.204;16.516;2023-07-09T12:35:14;34.60;64.40
35894;DHT22;21994;48.204;16.516;2023-07-09T12:37:42;34.30;62.20
35894;DHT22;21994;48.204;16.516;2023-07-09T12:40:17;34.10;63.00
35894;DHT22;21994;48.204;16.516;2023-07-09T12:42:47;34.00;62.90
35894;DHT22;21994;48.204;16.516;2023-07-09T12:45:14;34.20;62.50
35894;DHT22;21994;48.204;16.516;2023-07-09T12:47:41;34.30;65.90
35894;DHT22;21994;48.204;16.516;2023-07-09T12:50:16;34.20;63.10
35894;DHT22;21994;48.204;16.516;2023-07-09T12:52:45;34.20;61.10
35894;DHT22;21994;48.204;16.516;2023-07-09T12:55:19;34.20;61.70
35894;DHT22;21994;48.204;16.516;2023-07-09T12:57:47;34.10;62.40
35894;DHT22;21994;48.204;16.516;2023-07-09T13:00:14;33.90;65.10
35894;DHT22;21994;48.204;16.516;2023-07-09T13:02:40;33.80;58.30
35894;DHT22;21994;48.204;16.516;2023-07-09T13:05:13;33.70;58.50
35894;DHT22;21994;48.204;16.516;2023-07-09T13:07:42;33.80;55.90
35894;DHT22;21994;48.204;16.516;2023-07-09T13:10:17;33.90;59.30
35894;DHT22;21994;48.204;16.516;2023-07-09T13:12:46;33.90;61.20
35894;DHT22;21994;48.204;16.516;2023-07-09T13:17:49;33.80;55.80
35894;DHT22;21994;48.204;16.516;2023-07-09T13:20:15;33.80;56.20
35894;DHT22;21994;48.204;16.516;2023-07-09T13:22:42;33.70;58.90
35894;DHT22;21994;48.204;16.516;2023-07-09T13:25:08;33.90;59.60
35894;DHT22;21994;48.204;16.516;2023-07-09T13:27:35;33.80;57.70
35894;DHT22;21994;48.204;16.516;2023-07-09T13:30:01;34.00;55.60
35894;DHT22;21994;48.204;16.516;2023-07-09T13:32:28;34.10;57.60
35894;DHT22;21994;48.204;16.516;2023-07-09T13:34:54;34.10;55.00
35894;DHT22;21994;48.204;16.516;2023-07-09T13:37:20;34.10;57.10
35894;DHT22;21994;48.204;16.516;2023-07-09T13:39:45;34.10;57.40
35894;DHT22;21994;48.204;16.516;2023-07-09T13:42:13;34.10;58.90
35894;DHT22;21994;48.204;16.516;2023-07-09T13:44:41;34.20;57.40
35894;DHT22;21994;48.204;16.516;2023-07-09T13:47:10;34.20;55.70
35894;DHT22;21994;48.204;16.516;2023-07-09T13:49:41;34.10;57.50
35894;DHT22;21994;48.204;16.516;2023-07-09T13:52:09;34.00;57.80
35894;DHT22;21994;48.204;16.516;2023-07-09T13:54:41;34.10;54.60
35894;DHT22;21994;48.204;16.516;2023-07-09T13:57:10;34.20;55.60
35894;DHT22;21994;48.204;16.516;2023-07-09T13:59:39;34.10;58.00
35894;DHT22;21994;48.204;16.516;2023-07-09T14:02:17;34.20;56.20
35894;DHT22;21994;48.204;16.516;2023-07-09T14:04:46;34.10;55.70
35894;DHT22;21994;48.204;16.516;2023-07-09T14:07:23;33.90;55.90
35894;DHT22;21994;48.204;16.516;2023-07-09T14:09:50;34.00;56.90
35894;DHT22;21994;48.204;16.516;2023-07-09T14:12:16;34.00;54.70
35894;DHT22;21994;48.204;16.516;2023-07-09T14:14:42;34.10;59.90
35894;DHT22;21994;48.204;16.516;2023-07-09T14:17:11;34.20;58.80
35894;DHT22;21994;48.204;16.516;2023-07-09T14:19:38;34.20;62.00
35894;DHT22;21994;48.204;16.516;2023-07-09T14:22:10;34.20;61.50
35894;DHT22;21994;48.204;16.516;2023-07-09T14:24:46;34.20;62.60
35894;DHT22;21994;48.204;16.516;2023-07-09T14:27:12;34.20;57.80
35894;DHT22;21994;48.204;16.516;2023-07-09T14:29:38;34.10;54.70
35894;DHT22;21994;48.204;16.516;2023-07-09T14:32:04;34.20;56.10
35894;DHT22;21994;48.204;16.516;2023-07-09T14:34:33;34.20;58.40
35894;DHT22;21994;48.204;16.516;2023-07-09T14:37:00;33.90;57.90
35894;DHT22;21994;48.204;16.516;2023-07-09T14:39:27;33.80;59.10
35894;DHT22;21994;48.204;16.516;2023-07-09T14:41:53;34.00;58.50
35894;DHT22;21994;48.204;16.516;2023-07-09T14:44:30;33.80;58.00
35894;DHT22;21994;48.204;16.516;2023-07-09T14:46:57;33.90;58.30
35894;DHT22;21994;48.204;16.516;2023-07-09T14:49:24;34.00;56.60
35894;DHT22;21994;48.204;16.516;2023-07-09T14:51:51;34.00;55.70
35894;DHT22;21994;48.204;16.516;2023-07-09T14:54:18;33.80;56.90
35894;DHT22;21994;48.204;16.516;2023-07-09T14:56:48;33.70;56.30
35894;DHT22;21994;48.204;16.516;2023-07-09T14:59:14;33.80;57.80
35894;DHT22;21994;48.204;16.516;2023-07-09T15:01:40;33.80;57.40
35894;DHT22;21994;48.204;16.516;2023-07-09T15:04:49;33.70;59.80
35894;DHT22;21994;48.204;16.516;2023-07-09T15:06:58;33.80;56.30
35894;DHT22;21994;48.204;16.516;2023-07-09T15:09:25;33.80;60.40
35894;DHT22;21994;48.204;16.516;2023-07-09T15:11:53;33.90;58.60
35894;DHT22;21994;48.204;16.516;2023-07-09T15:14:20;34.00;58.40
35894;DHT22;21994;48.204;16.516;2023-07-09T15:16:47;33.90;58.70
35894;DHT22;21994;48.204;16.516;2023-07-09T15:19:15;34.10;57.30
35894;DHT22;21994;48.204;16.516;2023-07-09T15:21:42;34.00;56.50
35894;DHT22;21994;48.204;16.516;2023-07-09T15:24:14;33.90;59.20
35894;DHT22;21994;48.204;16.516;2023-07-09T15:26:41;34.10;59.80
35894;DHT22;21994;48.204;16.516;2023-07-09T15:29:12;34.10;57.50
35894;DHT22;21994;48.204;16.516;2023-07-09T15:31:39;33.90;59.20
35894;DHT22;21994;48.204;16.516;2023-07-09T15:34:05;33.80;59.70
35894;DHT22;21994;48.204;16.516;2023-07-09T15:36:32;33.90;57.60
35894;DHT22;21994;48.204;16.516;2023-07-09T15:38:58;34.00;57.10
35894;DHT22;21994;48.204;16.516;2023-07-09T15:41:24;33.80;58.50
35894;DHT22;21994;48.204;16.516;2023-07-09T15:43:49;33.60;58.10
35894;DHT22;21994;48.204;16.516;2023-07-09T15:46:20;33.50;56.70
35894;DHT22;21994;48.204;16.516;2023-07-09T15:48:47;33.30;59.50
35894;DHT22;21994;48.204;16.516;2023-07-09T15:51:15;33.20;59.60
35894;DHT22;21994;48.204;16.516;2023-07-09T15:53:41;33.20;57.70
35894;DHT22;21994;48.204;16.516;2023-07-09T15:58:50;32.90;59.00
35894;DHT22;21994;48.204;16.516;2023-07-09T16:01:19;32.90;58.30
35894;DHT22;21994;48.204;16.516;2023-07-09T16:03:49;32.70;59.00
35894;DHT22;21994;48.204;16.516;2023-07-09T16:06:16;32.80;57.50
35894;DHT22;21994;48.204;16.516;2023-07-09T16:08:43;32.90;59.00
35894;DHT22;21994;48.204;16.516;2023-07-09T16:11:20;33.00;59.60
35894;DHT22;21994;48.204;16.516;2023-07-09T16:13:47;33.00;59.30
35894;DHT22;21994;48.204;16.516;2023-07-09T16:16:14;33.10;58.20
35894;DHT22;21994;48.204;16.516;2023-07-09T16:18:45;33.10;59.50
35894;DHT22;21994;48.204;16.516;2023-07-09T16:21:21;33.10;58.60
35894;DHT22;21994;48.204;16.516;2023-07-09T16:23:47;33.00;60.00
35894;DHT22;21994;48.204;16.516;2023-07-09T16:26:13;32.90;61.40
35894;DHT22;21994;48.204;16.516;2023-07-09T16:28:39;32.80;60.10